sensor_id;sensor_type;location;lat;lon;timestamp;P1;durP1;ratioP1;P2;durP2;ratioP2
23702;SDS011;12030;50.376;8.762;2024-03-23T00:56:02;19.33;;;13.07;;
23702;SDS011;12030;50.376;8.762;2024-03-23T00:58:28;16.37;;;12.80;;
23702;SDS011;12030;50.376;8.762;2024-03-23T01:00:54;19.27;;;13.40;;
23702;SDS011;12030;50.376;8.762;2024-03-23T01:03:19;14.70;;;11.63;;
23702;SDS011;12030;50.376;8.762;2024-03-23T01:05:45;19.23;;;13.47;;
23702;SDS011;12030;50.376;8.762;2024-03-23T01:08:11;18.13;;;12.43;;
23702;SDS011;12030;50.376;8.762;2024-03-23T01:10:36;15.33;;;11.90;;
23702;SDS011;12030;50.376;8.762;2024-03-23T01:13:02;15.60;;;12.00;;
23702;SDS011;12030;50.376;8.762;2024-03-23T01:15:27;14.07;;;11.50;;
23702;SDS011;12030;50.376;8.762;2024-03-23T01:17:53;19.37;;;13.17;;
23702;SDS011;12030;50.376;8.762;2024-03-23T01:20:18;18.73;;;13.27;;
23702;SDS011;12030;50.376;8.762;2024-03-23T01:22:44;20.13;;;14.70;;
23702;SDS011;12030;50.376;8.762;2024-03-23T01:25:09;18.70;;;13.63;;
23702;SDS011;12030;50.376;8.762;2024-03-23T01:27:35;19.07;;;13.53;;
23702;SDS011;12030;50.376;8.762;2024-03-23T01:30:00;12.57;;;11.00;;
23702;SDS011;12030;50.376;8.762;2024-03-23T01:32:26;12.53;;;10.50;;
23702;SDS011;12030;50.376;8.762;2024-03-23T01:34:52;12.47;;;10.40;;
23702;SDS011;12030;50.376;8.762;2024-03-23T01:37:17;12.10;;;10.30;;
23702;SDS011;12030;50.376;8.762;2024-03-23T01:39:43;11.10;;;9.27;;
23702;SDS011;12030;50.376;8.762;2024-03-23T01:42:08;12.23;;;10.47;;
23702;SDS011;12030;50.376;8.762;2024-03-23T01:44:34;13.27;;;10.47;;
23702;SDS011;12030;50.376;8.762;2024-03-23T01:46:59;15.83;;;11.13;;
23702;SDS011;12030;50.376;8.762;2024-03-23T01:49:25;14.60;;;10.60;;
23702;SDS011;12030;50.376;8.762;2024-03-23T01:51:50;15.17;;;10.90;;
23702;SDS011;12030;50.376;8.762;2024-03-23T01:54:16;16.57;;;11.57;;
23702;SDS011;12030;50.376;8.762;2024-03-23T01:56:42;11.47;;;10.07;;
23702;SDS011;12030;50.376;8.762;2024-03-23T01:59:07;12.63;;;9.13;;
23702;SDS011;12030;50.376;8.762;2024-03-23T02:01:36;10.57;;;8.70;;
23702;SDS011;12030;50.376;8.762;2024-03-23T02:04:01;11.90;;;8.93;;
23702;SDS011;12030;50.376;8.762;2024-03-23T02:06:27;15.40;;;12.00;;
23702;SDS011;12030;50.376;8.762;2024-03-23T02:08:53;13.67;;;9.97;;
23702;SDS011;12030;50.376;8.762;2024-03-23T02:11:20;15.47;;;9.90;;
23702;SDS011;12030;50.376;8.762;2024-03-23T02:13:45;18.87;;;14.00;;
23702;SDS011;12030;50.376;8.762;2024-03-23T02:16:11;15.70;;;11.90;;
23702;SDS011;12030;50.376;8.762;2024-03-23T02:18:38;13.17;;;11.23;;
23702;SDS011;12030;50.376;8.762;2024-03-23T02:21:03;14.97;;;12.03;;
23702;SDS011;12030;50.376;8.762;2024-03-23T02:23:29;15.27;;;11.30;;
23702;SDS011;12030;50.376;8.762;2024-03-23T02:25:55;18.77;;;12.33;;
23702;SDS011;12030;50.376;8.762;2024-03-23T02:28:20;16.23;;;11.47;;
23702;SDS011;12030;50.376;8.762;2024-03-23T02:30:47;19.00;;;13.20;;
23702;SDS011;12030;50.376;8.762;2024-03-23T02:33:13;16.53;;;12.77;;
23702;SDS011;12030;50.376;8.762;2024-03-23T02:35:39;18.60;;;13.47;;
23702;SDS011;12030;50.376;8.762;2024-03-23T02:38:04;19.93;;;14.80;;
23702;SDS011;12030;50.376;8.762;2024-03-23T02:40:30;20.57;;;15.77;;
23702;SDS011;12030;50.376;8.762;2024-03-23T02:42:55;26.17;;;17.60;;
23702;SDS011;12030;50.376;8.762;2024-03-23T02:45:21;28.43;;;18.00;;
23702;SDS011;12030;50.376;8.762;2024-03-23T02:47:47;26.53;;;18.23;;
23702;SDS011;12030;50.376;8.762;2024-03-23T02:50:16;24.47;;;17.23;;
23702;SDS011;12030;50.376;8.762;2024-03-23T02:52:45;27.13;;;18.03;;
23702;SDS011;12030;50.376;8.762;2024-03-23T02:55:11;26.03;;;18.37;;
23702;SDS011;12030;50.376;8.762;2024-03-23T02:57:37;24.90;;;17.93;;
23702;SDS011;12030;50.376;8.762;2024-03-23T03:00:03;27.47;;;18.40;;
23702;SDS011;12030;50.376;8.762;2024-03-23T03:02:28;22.80;;;17.23;;
23702;SDS011;12030;50.376;8.762;2024-03-23T03:04:54;20.63;;;15.90;;
23702;SDS011;12030;50.376;8.762;2024-03-23T03:07:19;18.57;;;15.50;;
23702;SDS011;12030;50.376;8.762;2024-03-23T03:09:45;21.20;;;15.73;;
23702;SDS011;12030;50.376;8.762;2024-03-23T03:12:11;18.20;;;15.37;;
23702;SDS011;12030;50.376;8.762;2024-03-23T03:14:36;26.17;;;17.87;;
23702;SDS011;12030;50.376;8.762;2024-03-23T03:17:02;25.87;;;19.20;;
23702;SDS011;12030;50.376;8.762;2024-03-23T03:19:28;21.27;;;16.77;;
23702;SDS011;12030;50.376;8.762;2024-03-23T03:21:54;22.40;;;17.80;;
23702;SDS011;12030;50.376;8.762;2024-03-23T03:24:21;22.40;;;17.10;;
23702;SDS011;12030;50.376;8.762;2024-03-23T03:26:47;23.30;;;17.27;;
23702;SDS011;12030;50.376;8.762;2024-03-23T03:29:12;22.83;;;18.07;;
23702;SDS011;12030;50.376;8.762;2024-03-23T03:31:38;25.87;;;18.57;;
23702;SDS011;12030;50.376;8.762;2024-03-23T03:34:04;24.30;;;18.80;;
23702;SDS011;12030;50.376;8.762;2024-03-23T03:36:29;26.20;;;19.33;;
23702;SDS011;12030;50.376;8.762;2024-03-23T03:38:55;24.57;;;18.03;;
23702;SDS011;12030;50.376;8.762;2024-03-23T03:41:21;23.43;;;18.47;;
23702;SDS011;12030;50.376;8.762;2024-03-23T03:43:46;23.50;;;17.67;;
23702;SDS011;12030;50.376;8.762;2024-03-23T03:46:12;26.60;;;19.63;;
23702;SDS011;12030;50.376;8.762;2024-03-23T03:48:37;22.47;;;17.17;;
23702;SDS011;12030;50.376;8.762;2024-03-23T03:51:03;22.37;;;17.00;;
23702;SDS011;12030;50.376;8.762;2024-03-23T03:53:29;23.67;;;18.37;;
23702;SDS011;12030;50.376;8.762;2024-03-23T03:55:55;24.87;;;19.10;;
23702;SDS011;12030;50.376;8.762;2024-03-23T03:58:21;24.60;;;18.77;;
23702;SDS011;12030;50.376;8.762;2024-03-23T04:00:46;23.10;;;17.33;;
23702;SDS011;12030;50.376;8.762;2024-03-23T04:03:12;27.87;;;18.67;;
23702;SDS011;12030;50.376;8.762;2024-03-23T04:05:37;25.43;;;18.63;;
23702;SDS011;12030;50.376;8.762;2024-03-23T04:08:03;26.23;;;20.07;;
23702;SDS011;12030;50.376;8.762;2024-03-23T04:10:29;26.10;;;18.53;;
23702;SDS011;12030;50.376;8.762;2024-03-23T04:12:55;29.03;;;20.43;;
23702;SDS011;12030;50.376;8.762;2024-03-23T04:15:21;35.03;;;23.37;;
23702;SDS011;12030;50.376;8.762;2024-03-23T04:17:46;36.83;;;25.00;;
23702;SDS011;12030;50.376;8.762;2024-03-23T04:20:12;37.87;;;25.17;;
23702;SDS011;12030;50.376;8.762;2024-03-23T04:22:41;36.97;;;23.63;;
23702;SDS011;12030;50.376;8.762;2024-03-23T04:25:07;32.30;;;22.10;;
23702;SDS011;12030;50.376;8.762;2024-03-23T04:27:33;27.30;;;18.70;;
23702;SDS011;12030;50.376;8.762;2024-03-23T04:29:58;18.23;;;12.10;;
23702;SDS011;12030;50.376;8.762;2024-03-23T04:32:26;9.13;;;6.50;;
23702;SDS011;12030;50.376;8.762;2024-03-23T04:34:52;6.40;;;5.07;;
23702;SDS011;12030;50.376;8.762;2024-03-23T04:37:18;6.20;;;4.10;;
23702;SDS011;12030;50.376;8.762;2024-03-23T04:39:44;8.90;;;4.83;;
23702;SDS011;12030;50.376;8.762;2024-03-23T04:42:10;6.17;;;5.00;;
23702;SDS011;12030;50.376;8.762;2024-03-23T04:44:37;7.57;;;4.93;;
23702;SDS011;12030;50.376;8.762;2024-03-23T04:47:02;5.17;;;4.03;;
23702;SDS011;12030;50.376;8.762;2024-03-23T04:49:28;5.63;;;3.73;;
23702;SDS011;12030;50.376;8.762;2024-03-23T04:51:54;3.70;;;2.93;;
23702;SDS011;12030;50.376;8.762;2024-03-23T04:54:19;2.73;;;2.13;;
23702;SDS011;12030;50.376;8.762;2024-03-23T04:56:45;2.40;;;1.87;;
23702;SDS011;12030;50.376;8.762;2024-03-23T04:59:11;1.70;;;1.30;;
23702;SDS011;12030;50.376;8.762;2024-03-23T05:01:36;1.50;;;1.10;;
23702;SDS011;12030;50.376;8.762;2024-03-23T05:04:04;1.30;;;0.90;;
23702;SDS011;12030;50.376;8.762;2024-03-23T05:06:30;1.37;;;0.90;;
23702;SDS011;12030;50.376;8.762;2024-03-23T05:08:55;0.57;;;0.50;;
23702;SDS011;12030;50.376;8.762;2024-03-23T05:11:21;0.60;;;0.60;;
23702;SDS011;12030;50.376;8.762;2024-03-23T05:13:47;1.50;;;0.60;;
23702;SDS011;12030;50.376;8.762;2024-03-23T05:16:12;0.50;;;0.40;;
23702;SDS011;12030;50.376;8.762;2024-03-23T05:18:38;0.57;;;0.50;;
23702;SDS011;12030;50.376;8.762;2024-03-23T05:21:03;0.50;;;0.40;;
23702;SDS011;12030;50.376;8.762;2024-03-23T05:23:29;0.60;;;0.60;;
23702;SDS011;12030;50.376;8.762;2024-03-23T05:25:55;0.87;;;0.60;;
23702;SDS011;12030;50.376;8.762;2024-03-23T05:28:21;0.93;;;0.50;;
23702;SDS011;12030;50.376;8.762;2024-03-23T05:30:53;0.73;;;0.70;;
23702;SDS011;12030;50.376;8.762;2024-03-23T05:33:19;0.90;;;0.70;;
23702;SDS011;12030;50.376;8.762;2024-03-23T05:35:45;0.50;;;0.50;;
23702;SDS011;12030;50.376;8.762;2024-03-23T05:38:12;0.70;;;0.60;;
23702;SDS011;12030;50.376;8.762;2024-03-23T05:40:38;0.50;;;0.50;;
23702;SDS011;12030;50.376;8.762;2024-03-23T05:43:05;0.43;;;0.40;;
23702;SDS011;12030;50.376;8.762;2024-03-23T05:45:32;0.80;;;0.50;;
23702;SDS011;12030;50.376;8.762;2024-03-23T05:47:58;0.40;;;0.40;;
23702;SDS011;12030;50.376;8.762;2024-03-23T05:50:23;0.40;;;0.30;;
23702;SDS011;12030;50.376;8.762;2024-03-23T05:52:49;0.77;;;0.70;;
23702;SDS011;12030;50.376;8.762;2024-03-23T05:55:15;0.67;;;0.40;;
23702;SDS011;12030;50.376;8.762;2024-03-23T05:57:41;1.13;;;0.40;;
23702;SDS011;12030;50.376;8.762;2024-03-23T06:00:06;0.37;;;0.33;;
23702;SDS011;12030;50.376;8.762;2024-03-23T06:02:40;0.40;;;0.40;;
23702;SDS011;12030;50.376;8.762;2024-03-23T06:05:09;1.90;;;0.50;;
23702;SDS011;12030;50.376;8.762;2024-03-23T06:07:35;0.87;;;0.40;;
23702;SDS011;12030;50.376;8.762;2024-03-23T06:10:00;0.27;;;0.20;;
23702;SDS011;12030;50.376;8.762;2024-03-23T06:12:26;0.33;;;0.20;;
23702;SDS011;12030;50.376;8.762;2024-03-23T06:14:51;2.00;;;0.30;;
23702;SDS011;12030;50.376;8.762;2024-03-23T06:17:17;0.40;;;0.30;;
23702;SDS011;12030;50.376;8.762;2024-03-23T06:19:42;0.40;;;0.30;;
23702;SDS011;12030;50.376;8.762;2024-03-23T06:22:08;0.20;;;0.20;;
23702;SDS011;12030;50.376;8.762;2024-03-23T06:24:33;0.20;;;0.20;;
23702;SDS011;12030;50.376;8.762;2024-03-23T06:26:59;0.60;;;0.40;;
23702;SDS011;12030;50.376;8.762;2024-03-23T06:29:24;0.67;;;0.33;;
23702;SDS011;12030;50.376;8.762;2024-03-23T06:31:53;0.83;;;0.40;;
23702;SDS011;12030;50.376;8.762;2024-03-23T06:34:19;0.73;;;0.27;;
23702;SDS011;12030;50.376;8.762;2024-03-23T06:36:46;0.50;;;0.20;;
23702;SDS011;12030;50.376;8.762;2024-03-23T06:39:12;1.47;;;0.50;;
23702;SDS011;12030;50.376;8.762;2024-03-23T06:41:40;0.67;;;0.30;;
23702;SDS011;12030;50.376;8.762;2024-03-23T06:44:16;1.23;;;0.30;;
23702;SDS011;12030;50.376;8.762;2024-03-23T06:46:42;0.40;;;0.40;;
23702;SDS011;12030;50.376;8.762;2024-03-23T06:49:08;0.50;;;0.33;;
23702;SDS011;12030;50.376;8.762;2024-03-23T06:51:33;0.53;;;0.30;;
23702;SDS011;12030;50.376;8.762;2024-03-23T06:53:59;1.33;;;0.40;;
23702;SDS011;12030;50.376;8.762;2024-03-23T06:56:24;0.80;;;0.43;;
23702;SDS011;12030;50.376;8.762;2024-03-23T06:58:50;1.27;;;0.50;;
23702;SDS011;12030;50.376;8.762;2024-03-23T07:01:15;1.87;;;0.80;;
23702;SDS011;12030;50.376;8.762;2024-03-23T07:03:41;2.93;;;0.70;;
23702;SDS011;12030;50.376;8.762;2024-03-23T07:06:06;0.97;;;0.60;;
23702;SDS011;12030;50.376;8.762;2024-03-23T07:08:35;1.80;;;0.80;;
23702;SDS011;12030;50.376;8.762;2024-03-23T07:11:01;1.90;;;0.70;;
23702;SDS011;12030;50.376;8.762;2024-03-23T07:13:27;2.20;;;0.90;;
23702;SDS011;12030;50.376;8.762;2024-03-23T07:15:53;1.30;;;0.90;;
23702;SDS011;12030;50.376;8.762;2024-03-23T07:18:22;2.90;;;0.90;;
23702;SDS011;12030;50.376;8.762;2024-03-23T07:20:57;1.17;;;0.80;;
23702;SDS011;12030;50.376;8.762;2024-03-23T07:23:23;2.13;;;0.80;;
23702;SDS011;12030;50.376;8.762;2024-03-23T07:25:59;1.40;;;0.77;;
23702;SDS011;12030;50.376;8.762;2024-03-23T07:28:26;4.40;;;1.03;;
23702;SDS011;12030;50.376;8.762;2024-03-23T07:31:02;1.63;;;0.80;;
23702;SDS011;12030;50.376;8.762;2024-03-23T07:33:29;2.70;;;0.90;;
23702;SDS011;12030;50.376;8.762;2024-03-23T07:35:54;2.23;;;0.93;;
23702;SDS011;12030;50.376;8.762;2024-03-23T07:38:20;2.00;;;0.80;;
23702;SDS011;12030;50.376;8.762;2024-03-23T07:40:45;3.73;;;0.90;;
23702;SDS011;12030;50.376;8.762;2024-03-23T07:43:11;3.17;;;0.93;;
23702;SDS011;12030;50.376;8.762;2024-03-23T07:45:36;3.97;;;1.10;;
23702;SDS011;12030;50.376;8.762;2024-03-23T07:48:03;1.33;;;0.80;;
23702;SDS011;12030;50.376;8.762;2024-03-23T07:50:29;1.53;;;0.80;;
23702;SDS011;12030;50.376;8.762;2024-03-23T07:52:54;1.57;;;0.90;;
23702;SDS011;12030;50.376;8.762;2024-03-23T07:55:20;3.87;;;1.40;;
23702;SDS011;12030;50.376;8.762;2024-03-23T07:57:46;2.03;;;1.00;;
23702;SDS011;12030;50.376;8.762;2024-03-23T08:00:12;3.47;;;1.37;;
23702;SDS011;12030;50.376;8.762;2024-03-23T08:02:38;3.70;;;1.53;;
23702;SDS011;12030;50.376;8.762;2024-03-23T08:05:04;3.30;;;1.10;;
23702;SDS011;12030;50.376;8.762;2024-03-23T08:07:30;3.67;;;1.70;;
23702;SDS011;12030;50.376;8.762;2024-03-23T08:09:55;4.90;;;1.73;;
23702;SDS011;12030;50.376;8.762;2024-03-23T08:12:20;4.77;;;3.67;;
23702;SDS011;12030;50.376;8.762;2024-03-23T08:14:46;6.73;;;2.10;;
23702;SDS011;12030;50.376;8.762;2024-03-23T08:17:12;5.33;;;2.30;;
23702;SDS011;12030;50.376;8.762;2024-03-23T08:19:37;6.93;;;2.40;;
23702;SDS011;12030;50.376;8.762;2024-03-23T08:22:03;4.37;;;2.43;;
23702;SDS011;12030;50.376;8.762;2024-03-23T08:24:28;8.67;;;2.73;;
23702;SDS011;12030;50.376;8.762;2024-03-23T08:26:55;6.57;;;2.47;;
23702;SDS011;12030;50.376;8.762;2024-03-23T08:29:20;6.13;;;2.27;;
23702;SDS011;12030;50.376;8.762;2024-03-23T08:31:46;5.20;;;2.53;;
23702;SDS011;12030;50.376;8.762;2024-03-23T08:34:11;5.90;;;3.00;;
23702;SDS011;12030;50.376;8.762;2024-03-23T08:36:37;5.63;;;3.00;;
23702;SDS011;12030;50.376;8.762;2024-03-23T08:39:02;6.50;;;2.97;;
23702;SDS011;12030;50.376;8.762;2024-03-23T08:41:28;6.70;;;3.00;;
23702;SDS011;12030;50.376;8.762;2024-03-23T08:43:54;7.03;;;3.20;;
23702;SDS011;12030;50.376;8.762;2024-03-23T08:46:19;5.63;;;3.03;;
23702;SDS011;12030;50.376;8.762;2024-03-23T08:48:45;5.77;;;3.10;;
23702;SDS011;12030;50.376;8.762;2024-03-23T08:51:14;7.13;;;3.37;;
23702;SDS011;12030;50.376;8.762;2024-03-23T08:53:40;6.40;;;3.37;;
23702;SDS011;12030;50.376;8.762;2024-03-23T08:56:07;9.00;;;3.00;;
23702;SDS011;12030;50.376;8.762;2024-03-23T08:58:33;5.67;;;2.83;;
23702;SDS011;12030;50.376;8.762;2024-03-23T09:01:03;5.57;;;3.17;;
23702;SDS011;12030;50.376;8.762;2024-03-23T09:03:29;6.77;;;2.90;;
23702;SDS011;12030;50.376;8.762;2024-03-23T09:05:55;7.27;;;3.53;;
23702;SDS011;12030;50.376;8.762;2024-03-23T09:08:23;7.77;;;2.83;;
23702;SDS011;12030;50.376;8.762;2024-03-23T09:10:48;8.07;;;2.70;;
23702;SDS011;12030;50.376;8.762;2024-03-23T09:13:14;7.40;;;2.93;;
23702;SDS011;12030;50.376;8.762;2024-03-23T09:15:47;8.37;;;3.00;;
23702;SDS011;12030;50.376;8.762;2024-03-23T09:18:14;6.97;;;2.90;;
23702;SDS011;12030;50.376;8.762;2024-03-23T09:20:40;6.70;;;2.60;;
23702;SDS011;12030;50.376;8.762;2024-03-23T09:23:05;8.83;;;2.50;;
23702;SDS011;12030;50.376;8.762;2024-03-23T09:25:31;4.23;;;2.60;;
23702;SDS011;12030;50.376;8.762;2024-03-23T09:27:57;7.23;;;2.83;;
23702;SDS011;12030;50.376;8.762;2024-03-23T09:30:23;7.20;;;2.13;;
23702;SDS011;12030;50.376;8.762;2024-03-23T09:32:49;10.13;;;2.80;;
23702;SDS011;12030;50.376;8.762;2024-03-23T09:35:14;8.90;;;2.73;;
23702;SDS011;12030;50.376;8.762;2024-03-23T09:37:40;9.47;;;2.60;;
23702;SDS011;12030;50.376;8.762;2024-03-23T09:40:12;6.80;;;2.27;;
23702;SDS011;12030;50.376;8.762;2024-03-23T09:42:38;4.80;;;2.00;;
23702;SDS011;12030;50.376;8.762;2024-03-23T09:45:06;6.23;;;2.30;;
23702;SDS011;12030;50.376;8.762;2024-03-23T09:47:42;6.97;;;1.90;;
23702;SDS011;12030;50.376;8.762;2024-03-23T09:50:08;7.03;;;2.60;;
23702;SDS011;12030;50.376;8.762;2024-03-23T09:52:34;5.83;;;1.80;;
23702;SDS011;12030;50.376;8.762;2024-03-23T09:55:00;5.17;;;2.87;;
23702;SDS011;12030;50.376;8.762;2024-03-23T09:57:25;6.13;;;1.80;;
23702;SDS011;12030;50.376;8.762;2024-03-23T09:59:51;5.60;;;2.20;;
23702;SDS011;12030;50.376;8.762;2024-03-23T10:02:16;4.83;;;1.80;;
23702;SDS011;12030;50.376;8.762;2024-03-23T10:04:45;5.40;;;1.83;;
23702;SDS011;12030;50.376;8.762;2024-03-23T10:07:14;6.10;;;1.60;;
23702;SDS011;12030;50.376;8.762;2024-03-23T10:09:44;6.40;;;2.20;;
23702;SDS011;12030;50.376;8.762;2024-03-23T10:12:10;5.33;;;1.90;;
23702;SDS011;12030;50.376;8.762;2024-03-23T10:14:40;6.30;;;1.80;;
23702;SDS011;12030;50.376;8.762;2024-03-23T10:17:13;4.63;;;1.97;;
23702;SDS011;12030;50.376;8.762;2024-03-23T10:19:46;7.00;;;2.30;;
23702;SDS011;12030;50.376;8.762;2024-03-23T10:22:18;7.27;;;2.00;;
23702;SDS011;12030;50.376;8.762;2024-03-23T10:24:43;9.10;;;2.50;;
23702;SDS011;12030;50.376;8.762;2024-03-23T10:27:09;6.00;;;1.93;;
23702;SDS011;12030;50.376;8.762;2024-03-23T10:29:39;5.20;;;1.77;;
23702;SDS011;12030;50.376;8.762;2024-03-23T10:32:08;4.10;;;1.53;;
23702;SDS011;12030;50.376;8.762;2024-03-23T10:34:35;6.07;;;1.50;;
23702;SDS011;12030;50.376;8.762;2024-03-23T10:37:02;3.83;;;1.27;;
23702;SDS011;12030;50.376;8.762;2024-03-23T10:39:35;3.97;;;1.00;;
23702;SDS011;12030;50.376;8.762;2024-03-23T10:42:04;2.67;;;1.07;;
23702;SDS011;12030;50.376;8.762;2024-03-23T10:44:31;3.43;;;1.00;;
23702;SDS011;12030;50.376;8.762;2024-03-23T10:46:58;4.23;;;1.10;;
23702;SDS011;12030;50.376;8.762;2024-03-23T10:49:28;2.27;;;1.00;;
23702;SDS011;12030;50.376;8.762;2024-03-23T10:52:05;2.80;;;0.87;;
23702;SDS011;12030;50.376;8.762;2024-03-23T10:54:31;4.77;;;1.10;;
23702;SDS011;12030;50.376;8.762;2024-03-23T10:57:05;5.33;;;1.30;;
23702;SDS011;12030;50.376;8.762;2024-03-23T10:59:34;3.17;;;1.20;;
23702;SDS011;12030;50.376;8.762;2024-03-23T11:02:02;5.00;;;1.20;;
23702;SDS011;12030;50.376;8.762;2024-03-23T11:04:35;4.67;;;1.20;;
23702;SDS011;12030;50.376;8.762;2024-03-23T11:07:03;5.20;;;1.13;;
23702;SDS011;12030;50.376;8.762;2024-03-23T11:09:49;4.20;;;0.93;;
23702;SDS011;12030;50.376;8.762;2024-03-23T11:14:51;5.47;;;1.40;;
23702;SDS011;12030;50.376;8.762;2024-03-23T11:17:28;2.30;;;1.07;;
23702;SDS011;12030;50.376;8.762;2024-03-23T11:19:55;3.17;;;1.27;;
23702;SDS011;12030;50.376;8.762;2024-03-23T11:22:40;4.03;;;1.07;;
23702;SDS011;12030;50.376;8.762;2024-03-23T11:27:46;4.13;;;1.10;;
23702;SDS011;12030;50.376;8.762;2024-03-23T11:30:14;5.10;;;1.03;;
23702;SDS011;12030;50.376;8.762;2024-03-23T11:32:40;4.13;;;1.30;;
23702;SDS011;12030;50.376;8.762;2024-03-23T11:35:07;2.00;;;1.03;;
23702;SDS011;12030;50.376;8.762;2024-03-23T11:37:34;5.13;;;1.50;;
23702;SDS011;12030;50.376;8.762;2024-03-23T11:40:18;3.57;;;1.33;;
23702;SDS011;12030;50.376;8.762;2024-03-23T11:42:44;5.57;;;1.97;;
23702;SDS011;12030;50.376;8.762;2024-03-23T11:45:10;3.47;;;2.00;;
23702;SDS011;12030;50.376;8.762;2024-03-23T11:47:36;4.37;;;2.03;;
23702;SDS011;12030;50.376;8.762;2024-03-23T11:50:01;4.57;;;1.87;;
23702;SDS011;12030;50.376;8.762;2024-03-23T11:52:27;5.83;;;1.67;;
23702;SDS011;12030;50.376;8.762;2024-03-23T11:55:02;4.07;;;1.80;;
23702;SDS011;12030;50.376;8.762;2024-03-23T11:57:29;3.90;;;1.50;;
23702;SDS011;12030;50.376;8.762;2024-03-23T11:59:55;4.37;;;1.50;;
23702;SDS011;12030;50.376;8.762;2024-03-23T12:02:20;4.43;;;1.90;;
23702;SDS011;12030;50.376;8.762;2024-03-23T12:04:46;3.60;;;1.63;;
23702;SDS011;12030;50.376;8.762;2024-03-23T12:07:12;4.47;;;1.40;;
23702;SDS011;12030;50.376;8.762;2024-03-23T12:09:39;3.20;;;1.37;;
23702;SDS011;12030;50.376;8.762;2024-03-23T12:12:10;3.63;;;1.70;;
23702;SDS011;12030;50.376;8.762;2024-03-23T12:14:39;5.27;;;1.50;;
23702;SDS011;12030;50.376;8.762;2024-03-23T12:19:38;2.77;;;1.50;;
23702;SDS011;12030;50.376;8.762;2024-03-23T12:22:04;6.00;;;2.00;;
23702;SDS011;12030;50.376;8.762;2024-03-23T12:24:31;7.10;;;1.93;;
23702;SDS011;12030;50.376;8.762;2024-03-23T12:26:59;7.33;;;2.00;;
23702;SDS011;12030;50.376;8.762;2024-03-23T12:29:27;3.87;;;1.70;;
23702;SDS011;12030;50.376;8.762;2024-03-23T12:31:54;3.57;;;1.50;;
23702;SDS011;12030;50.376;8.762;2024-03-23T12:34:19;3.90;;;1.50;;
23702;SDS011;12030;50.376;8.762;2024-03-23T12:36:45;3.77;;;1.60;;
23702;SDS011;12030;50.376;8.762;2024-03-23T12:39:10;3.83;;;1.30;;
23702;SDS011;12030;50.376;8.762;2024-03-23T12:41:36;5.77;;;1.57;;
23702;SDS011;12030;50.376;8.762;2024-03-23T12:44:01;6.27;;;1.80;;
23702;SDS011;12030;50.376;8.762;2024-03-23T12:46:27;3.27;;;1.40;;
23702;SDS011;12030;50.376;8.762;2024-03-23T12:48:52;5.00;;;1.50;;
23702;SDS011;12030;50.376;8.762;2024-03-23T12:51:18;8.30;;;1.83;;
23702;SDS011;12030;50.376;8.762;2024-03-23T12:53:43;3.30;;;1.47;;
23702;SDS011;12030;50.376;8.762;2024-03-23T12:56:12;2.90;;;1.13;;
23702;SDS011;12030;50.376;8.762;2024-03-23T12:58:37;2.23;;;1.00;;
23702;SDS011;12030;50.376;8.762;2024-03-23T13:01:03;3.17;;;0.80;;
23702;SDS011;12030;50.376;8.762;2024-03-23T13:03:28;2.17;;;0.73;;
23702;SDS011;12030;50.376;8.762;2024-03-23T13:05:54;2.33;;;0.90;;
23702;SDS011;12030;50.376;8.762;2024-03-23T13:08:19;3.47;;;1.00;;
23702;SDS011;12030;50.376;8.762;2024-03-23T13:10:45;1.40;;;0.83;;
23702;SDS011;12030;50.376;8.762;2024-03-23T13:13:12;3.03;;;0.97;;
23702;SDS011;12030;50.376;8.762;2024-03-23T13:15:37;1.70;;;0.80;;
23702;SDS011;12030;50.376;8.762;2024-03-23T13:18:03;1.73;;;1.07;;
23702;SDS011;12030;50.376;8.762;2024-03-23T13:20:28;3.27;;;1.03;;
23702;SDS011;12030;50.376;8.762;2024-03-23T13:22:54;1.10;;;0.80;;
23702;SDS011;12030;50.376;8.762;2024-03-23T13:25:19;1.27;;;0.63;;
23702;SDS011;12030;50.376;8.762;2024-03-23T13:27:45;1.83;;;0.70;;
23702;SDS011;12030;50.376;8.762;2024-03-23T13:30:10;1.57;;;0.90;;
23702;SDS011;12030;50.376;8.762;2024-03-23T13:32:36;1.50;;;0.73;;
23702;SDS011;12030;50.376;8.762;2024-03-23T13:35:03;1.03;;;0.70;;
23702;SDS011;12030;50.376;8.762;2024-03-23T13:37:28;1.23;;;0.50;;
23702;SDS011;12030;50.376;8.762;2024-03-23T13:39:54;1.60;;;0.50;;
23702;SDS011;12030;50.376;8.762;2024-03-23T13:42:19;1.00;;;0.50;;
23702;SDS011;12030;50.376;8.762;2024-03-23T13:44:45;1.73;;;0.50;;
23702;SDS011;12030;50.376;8.762;2024-03-23T13:47:10;1.70;;;0.70;;
23702;SDS011;12030;50.376;8.762;2024-03-23T13:49:36;1.20;;;0.60;;
23702;SDS011;12030;50.376;8.762;2024-03-23T13:52:01;1.20;;;0.77;;
23702;SDS011;12030;50.376;8.762;2024-03-23T13:54:27;1.23;;;0.70;;
23702;SDS011;12030;50.376;8.762;2024-03-23T13:56:54;3.07;;;0.80;;
23702;SDS011;12030;50.376;8.762;2024-03-23T13:59:21;1.17;;;0.80;;
23702;SDS011;12030;50.376;8.762;2024-03-23T14:01:48;1.60;;;0.77;;
23702;SDS011;12030;50.376;8.762;2024-03-23T14:04:14;2.27;;;0.80;;
23702;SDS011;12030;50.376;8.762;2024-03-23T14:06:44;1.23;;;0.70;;
23702;SDS011;12030;50.376;8.762;2024-03-23T14:09:12;1.30;;;0.67;;
23702;SDS011;12030;50.376;8.762;2024-03-23T14:11:39;4.53;;;0.87;;
23702;SDS011;12030;50.376;8.762;2024-03-23T14:14:06;1.20;;;0.60;;
23702;SDS011;12030;50.376;8.762;2024-03-23T14:16:32;0.97;;;0.80;;
23702;SDS011;12030;50.376;8.762;2024-03-23T14:18:58;1.40;;;0.80;;
23702;SDS011;12030;50.376;8.762;2024-03-23T14:21:24;1.13;;;0.63;;
23702;SDS011;12030;50.376;8.762;2024-03-23T14:23:50;1.47;;;0.70;;
23702;SDS011;12030;50.376;8.762;2024-03-23T14:26:16;1.93;;;0.67;;
23702;SDS011;12030;50.376;8.762;2024-03-23T14:28:41;0.90;;;0.63;;
23702;SDS011;12030;50.376;8.762;2024-03-23T14:31:07;1.50;;;0.70;;
23702;SDS011;12030;50.376;8.762;2024-03-23T14:33:35;2.53;;;0.73;;
23702;SDS011;12030;50.376;8.762;2024-03-23T14:36:10;2.27;;;0.70;;
23702;SDS011;12030;50.376;8.762;2024-03-23T14:38:36;1.10;;;0.70;;
23702;SDS011;12030;50.376;8.762;2024-03-23T14:41:02;0.67;;;0.50;;
23702;SDS011;12030;50.376;8.762;2024-03-23T14:43:28;2.00;;;0.60;;
23702;SDS011;12030;50.376;8.762;2024-03-23T14:48:33;0.70;;;0.47;;
23702;SDS011;12030;50.376;8.762;2024-03-23T14:50:59;1.87;;;0.73;;
23702;SDS011;12030;50.376;8.762;2024-03-23T14:53:25;0.70;;;0.50;;
23702;SDS011;12030;50.376;8.762;2024-03-23T14:55:54;2.40;;;0.60;;
23702;SDS011;12030;50.376;8.762;2024-03-23T14:58:24;1.33;;;0.70;;
23702;SDS011;12030;50.376;8.762;2024-03-23T15:00:50;1.53;;;0.70;;
23702;SDS011;12030;50.376;8.762;2024-03-23T15:03:17;1.30;;;0.60;;
23702;SDS011;12030;50.376;8.762;2024-03-23T15:05:51;1.50;;;0.50;;
23702;SDS011;12030;50.376;8.762;2024-03-23T15:08:17;0.97;;;0.50;;
23702;SDS011;12030;50.376;8.762;2024-03-23T15:10:43;1.27;;;0.50;;
23702;SDS011;12030;50.376;8.762;2024-03-23T15:13:08;1.23;;;0.50;;
23702;SDS011;12030;50.376;8.762;2024-03-23T15:15:38;1.27;;;0.60;;
23702;SDS011;12030;50.376;8.762;2024-03-23T15:18:09;1.63;;;0.53;;
23702;SDS011;12030;50.376;8.762;2024-03-23T15:20:37;1.13;;;0.47;;
23702;SDS011;12030;50.376;8.762;2024-03-23T15:23:03;1.00;;;0.40;;
23702;SDS011;12030;50.376;8.762;2024-03-23T15:25:29;0.63;;;0.47;;
23702;SDS011;12030;50.376;8.762;2024-03-23T15:27:55;0.63;;;0.40;;
23702;SDS011;12030;50.376;8.762;2024-03-23T15:30:22;0.60;;;0.40;;
23702;SDS011;12030;50.376;8.762;2024-03-23T15:32:48;2.30;;;0.50;;
23702;SDS011;12030;50.376;8.762;2024-03-23T15:35:13;2.97;;;0.60;;
23702;SDS011;12030;50.376;8.762;2024-03-23T15:37:39;0.57;;;0.40;;
23702;SDS011;12030;50.376;8.762;2024-03-23T15:40:06;0.70;;;0.43;;
23702;SDS011;12030;50.376;8.762;2024-03-23T15:42:32;1.00;;;0.50;;